ESNG

Gällivare Airport

Gällivare, Sweden
METAR ESNG 220020Z AUTO 27005KT 9999 NCD M27/M30 Q1024
Observed Flight Rules
Feb-22 @ 00:20 UTC (4 hours ago) Visual Flight Rules
Wind Visibility Clouds
270° at 5 knots 10,000+ meters
  • Clear skies
Temperatures Readings
Current -27°C / -17°F
Dewpoint -30°C / -22°F
Humidity 76%
Altimeter 30.24" Hg
Pressure 1024 hPa
Elevation 310
METAR ESNG 220020Z AUTO 27005KT 9999 NCD M27/M30 Q1024
Observed Flight Rules
Feb-22 @ 00:20 UTC
(4 hours ago)
VFR
Wind Visibility
270° at 5 knots 10,000+ meters
Clouds
  • Clear skies
Temperature Dewpoint
-27°C / -17°F -30°C / -22°F
Humidity Altimeter Pressure
76% 30.24" Hg 1024 hPa